createdAt,value
2024-01-26T00:01:47.506Z,6.20
2024-01-26T00:04:14.205Z,5.80
2024-01-26T00:06:40.861Z,5.90
2024-01-26T00:09:16.880Z,6.35
2024-01-26T00:11:43.867Z,5.18
2024-01-26T00:14:10.591Z,5.20
2024-01-26T00:16:37.647Z,4.82
2024-01-26T00:19:04.863Z,4.78
2024-01-26T00:21:31.562Z,5.55
2024-01-26T00:23:58.877Z,4.40
2024-01-26T00:26:25.739Z,5.18
2024-01-26T00:28:52.390Z,4.88
2024-01-26T00:31:19.228Z,4.65
2024-01-26T00:33:46.224Z,4.85
2024-01-26T00:36:13.383Z,5.10
2024-01-26T00:38:42.999Z,4.50
2024-01-26T00:41:09.562Z,5.13
2024-01-26T00:43:36.090Z,4.97
2024-01-26T00:46:02.745Z,5.55
2024-01-26T00:48:29.822Z,5.57
2024-01-26T00:50:56.398Z,6.45
2024-01-26T00:53:23.795Z,8.57
2024-01-26T00:55:50.826Z,11.73
2024-01-26T00:58:17.505Z,10.98
2024-01-26T01:00:43.974Z,11.10
2024-01-26T01:03:10.641Z,10.90
2024-01-26T01:05:37.298Z,10.85
2024-01-26T01:08:03.982Z,10.02
2024-01-26T01:10:30.400Z,11.90
2024-01-26T01:12:57.783Z,12.80
2024-01-26T01:15:24.868Z,11.43
2024-01-26T01:17:51.512Z,11.43
2024-01-26T01:20:18.073Z,10.85
2024-01-26T01:22:48.544Z,9.63
2024-01-26T01:25:14.967Z,10.10
2024-01-26T01:27:41.710Z,9.63
2024-01-26T01:30:08.693Z,10.05
2024-01-26T01:32:35.384Z,9.88
2024-01-26T01:35:02.216Z,10.00
2024-01-26T01:37:28.642Z,10.07
2024-01-26T01:39:55.104Z,10.30
2024-01-26T01:42:21.533Z,9.55
2024-01-26T01:44:48.440Z,9.15
2024-01-26T01:47:15.603Z,9.23
2024-01-26T01:49:44.110Z,8.40
2024-01-26T01:52:17.356Z,7.82
2024-01-26T01:54:43.838Z,8.05
2024-01-26T01:57:14.057Z,8.60
2024-01-26T01:59:42.432Z,7.85
2024-01-26T02:02:09.306Z,8.77
2024-01-26T02:04:35.718Z,8.23
2024-01-26T02:07:03.039Z,8.20
2024-01-26T02:09:30.087Z,8.27
2024-01-26T02:11:57.081Z,8.02
2024-01-26T02:14:24.267Z,8.80
2024-01-26T02:16:54.694Z,8.65
2024-01-26T02:19:23.186Z,8.80
2024-01-26T02:21:51.355Z,8.10
2024-01-26T02:24:17.798Z,8.18
2024-01-26T02:26:44.581Z,8.53
2024-01-26T02:29:11.929Z,8.20
2024-01-26T02:31:38.547Z,8.23
2024-01-26T02:34:05.522Z,8.15
2024-01-26T02:36:33.562Z,7.82
2024-01-26T02:39:00.119Z,8.27
2024-01-26T02:41:26.738Z,8.57
2024-01-26T02:43:53.153Z,8.80
2024-01-26T02:46:19.656Z,8.70
2024-01-26T02:48:46.164Z,9.40
2024-01-26T02:51:12.682Z,9.30
2024-01-26T02:53:42.827Z,9.88
2024-01-26T02:56:09.326Z,11.02
2024-01-26T02:58:36.252Z,10.73
2024-01-26T03:01:02.747Z,10.07
2024-01-26T03:03:29.534Z,9.23
2024-01-26T03:05:56.089Z,10.05
2024-01-26T03:08:22.626Z,10.98
2024-01-26T03:10:49.008Z,9.98
2024-01-26T03:13:17.410Z,10.02
2024-01-26T03:15:44.293Z,10.50
2024-01-26T03:18:10.804Z,10.80
2024-01-26T03:20:37.260Z,11.15
2024-01-26T03:23:03.755Z,10.48
2024-01-26T03:25:30.190Z,10.73
2024-01-26T03:27:56.681Z,10.77
2024-01-26T03:30:23.462Z,11.27
2024-01-26T03:32:50.310Z,12.93
2024-01-26T03:35:16.802Z,11.60
2024-01-26T03:37:43.203Z,13.75
2024-01-26T03:40:09.842Z,13.83
2024-01-26T03:42:36.303Z,16.48
2024-01-26T03:45:03.771Z,15.35
2024-01-26T03:47:30.264Z,15.63
2024-01-26T03:49:56.771Z,16.17
2024-01-26T03:52:23.386Z,14.90
2024-01-26T03:54:49.843Z,15.80
2024-01-26T03:57:16.272Z,18.00
2024-01-26T03:59:42.786Z,16.88
2024-01-26T04:02:09.249Z,15.98
2024-01-26T04:04:35.776Z,16.77
2024-01-26T04:07:02.252Z,18.00
2024-01-26T04:09:28.746Z,16.50
2024-01-26T04:11:55.330Z,17.08
2024-01-26T04:14:22.324Z,16.48
2024-01-26T04:16:49.180Z,15.73
2024-01-26T04:19:15.890Z,16.88
2024-01-26T04:21:42.862Z,15.50
2024-01-26T04:24:09.461Z,15.20
2024-01-26T04:26:35.935Z,16.52
2024-01-26T04:29:02.323Z,15.83
2024-01-26T04:31:28.713Z,17.73
2024-01-26T04:33:55.251Z,16.58
2024-01-26T04:36:21.801Z,17.55
2024-01-26T04:38:48.377Z,17.05
2024-01-26T04:41:14.809Z,17.50
2024-01-26T04:43:41.551Z,18.83
2024-01-26T04:46:08.910Z,17.10
2024-01-26T04:48:35.633Z,16.23
2024-01-26T04:51:02.280Z,18.10
2024-01-26T04:53:28.655Z,18.00
2024-01-26T04:55:55.575Z,18.42
2024-01-26T04:58:22.018Z,18.60
2024-01-26T05:00:48.542Z,18.20
2024-01-26T05:03:15.090Z,18.98
2024-01-26T05:05:41.781Z,17.97
2024-01-26T05:08:08.301Z,16.85
2024-01-26T05:10:35.118Z,17.35
2024-01-26T05:13:01.746Z,17.40
2024-01-26T05:15:28.350Z,18.83
2024-01-26T05:17:54.942Z,18.50
2024-01-26T05:20:21.461Z,17.27
2024-01-26T05:22:47.971Z,18.35
2024-01-26T05:25:14.445Z,17.00
2024-01-26T05:27:42.575Z,18.90
2024-01-26T05:30:09.604Z,18.00
2024-01-26T05:32:36.302Z,15.73
2024-01-26T05:35:02.870Z,16.90
2024-01-26T05:37:29.350Z,15.82
2024-01-26T05:39:56.940Z,19.08
2024-01-26T05:42:25.303Z,18.30
2024-01-26T05:44:51.711Z,17.83
2024-01-26T05:47:19.707Z,20.23
2024-01-26T05:49:46.134Z,22.17
2024-01-26T05:52:12.674Z,22.17
2024-01-26T05:54:39.092Z,23.47
2024-01-26T05:57:05.677Z,23.17
2024-01-26T05:59:32.078Z,24.48
2024-01-26T06:01:58.466Z,22.50
2024-01-26T06:04:25.007Z,22.90
2024-01-26T06:06:51.664Z,22.83
2024-01-26T06:09:18.274Z,22.17
2024-01-26T06:11:44.971Z,21.00
2024-01-26T06:14:11.524Z,20.23
2024-01-26T06:16:38.014Z,20.55
2024-01-26T06:19:05.500Z,22.20
2024-01-26T06:21:32.218Z,19.77
2024-01-26T06:23:58.770Z,16.88
2024-01-26T06:26:26.637Z,17.27
2024-01-26T06:28:55.820Z,15.63
2024-01-26T06:31:25.807Z,17.63
2024-01-26T06:33:52.855Z,16.13
2024-01-26T06:36:19.547Z,16.33
2024-01-26T06:38:46.386Z,14.38
2024-01-26T06:41:12.998Z,14.98
2024-01-26T06:43:39.661Z,14.97
2024-01-26T06:46:06.165Z,15.48
2024-01-26T06:48:32.943Z,14.65
2024-01-26T06:50:59.520Z,14.60
2024-01-26T06:53:25.973Z,13.65
2024-01-26T06:55:53.907Z,12.93
2024-01-26T06:58:20.666Z,14.00
2024-01-26T07:00:48.262Z,15.25
2024-01-26T07:03:15.078Z,14.00
2024-01-26T07:05:41.851Z,13.60
2024-01-26T07:08:09.823Z,13.50
2024-01-26T07:10:36.246Z,15.85
2024-01-26T07:13:02.644Z,15.30
2024-01-26T07:15:29.089Z,15.50
2024-01-26T07:17:55.648Z,17.10
2024-01-26T07:20:22.206Z,17.60
2024-01-26T07:22:48.550Z,18.30
2024-01-26T07:25:20.050Z,16.08
2024-01-26T07:27:47.630Z,16.85
2024-01-26T07:30:14.947Z,14.73
2024-01-26T07:32:41.600Z,17.13
2024-01-26T07:35:08.330Z,14.15
2024-01-26T07:37:34.771Z,13.50
2024-01-26T07:40:05.981Z,16.20
2024-01-26T07:42:32.665Z,13.80
2024-01-26T07:44:59.301Z,14.10
2024-01-26T07:47:28.130Z,11.98
2024-01-26T07:49:54.989Z,13.00
2024-01-26T07:52:23.001Z,12.75
2024-01-26T07:54:49.864Z,12.60
2024-01-26T07:57:16.717Z,12.73
2024-01-26T07:59:43.187Z,12.15
2024-01-26T08:02:09.949Z,12.40
2024-01-26T08:04:36.407Z,11.32
2024-01-26T08:07:03.162Z,12.55
2024-01-26T08:09:29.554Z,12.83
2024-01-26T08:11:56.290Z,10.15
2024-01-26T08:14:23.127Z,11.77
2024-01-26T08:16:49.867Z,11.23
2024-01-26T08:19:17.838Z,9.25
2024-01-26T08:21:44.450Z,10.87
2024-01-26T08:24:10.931Z,11.50
2024-01-26T08:26:37.591Z,9.63
2024-01-26T08:29:04.098Z,10.10
2024-01-26T08:31:30.775Z,12.30
2024-01-26T08:33:57.276Z,11.97
2024-01-26T08:36:24.649Z,11.70
2024-01-26T08:38:53.452Z,8.60
2024-01-26T08:41:19.930Z,7.45
2024-01-26T08:43:46.323Z,4.75
2024-01-26T08:46:12.895Z,3.37
2024-01-26T08:48:39.410Z,4.38
2024-01-26T08:51:06.179Z,3.85
2024-01-26T08:53:32.788Z,3.08
2024-01-26T08:55:59.280Z,3.58
2024-01-26T08:58:25.697Z,3.50
2024-01-26T09:00:52.234Z,3.60
2024-01-26T09:03:18.986Z,3.38
2024-01-26T09:05:45.562Z,4.18
2024-01-26T09:08:12.247Z,4.97
2024-01-26T09:10:38.731Z,4.37
2024-01-26T09:13:05.375Z,3.45
2024-01-26T09:15:31.831Z,3.33
2024-01-26T09:17:58.257Z,2.90
2024-01-26T09:20:25.444Z,3.40
2024-01-26T09:22:52.110Z,3.90
2024-01-26T09:25:18.564Z,4.72
2024-01-26T09:27:46.384Z,4.35
2024-01-26T09:30:13.585Z,4.13
2024-01-26T09:32:40.362Z,3.88
2024-01-26T09:35:09.321Z,4.40
2024-01-26T09:37:36.205Z,4.00
2024-01-26T09:40:02.817Z,3.95
2024-01-26T09:42:29.538Z,3.92
2024-01-26T09:44:57.130Z,3.50
2024-01-26T09:47:25.790Z,4.47
2024-01-26T09:49:56.089Z,3.47
2024-01-26T09:52:23.447Z,4.50
2024-01-26T09:54:51.245Z,4.00
2024-01-26T09:57:19.286Z,3.83
2024-01-26T09:59:51.313Z,4.50
2024-01-26T10:02:18.686Z,4.20
2024-01-26T10:04:45.801Z,4.65
2024-01-26T10:07:12.479Z,4.30
2024-01-26T10:09:39.217Z,4.72
2024-01-26T10:12:06.402Z,4.80
2024-01-26T10:14:33.164Z,5.18
2024-01-26T10:17:00.751Z,6.30
2024-01-26T10:19:27.873Z,7.03
2024-01-26T10:21:55.324Z,7.40
2024-01-26T10:24:23.423Z,6.50
2024-01-26T10:26:51.180Z,6.20
2024-01-26T10:29:18.033Z,6.53
2024-01-26T10:31:46.178Z,6.63
2024-01-26T10:34:14.610Z,6.70
2024-01-26T10:36:45.245Z,6.60
2024-01-26T10:39:25.182Z,6.85
2024-01-26T10:41:56.109Z,6.95
2024-01-26T10:44:23.699Z,6.38
2024-01-26T10:46:51.730Z,6.32
2024-01-26T10:49:18.998Z,6.55
2024-01-26T10:51:46.277Z,6.53
2024-01-26T10:54:14.733Z,6.68
2024-01-26T10:56:41.354Z,6.38
2024-01-26T10:59:11.529Z,7.35
2024-01-26T11:01:39.014Z,7.28
2024-01-26T11:04:07.752Z,7.15
2024-01-26T11:06:35.638Z,7.78
2024-01-26T11:09:08.331Z,7.68
2024-01-26T11:11:39.492Z,7.07
2024-01-26T11:14:07.043Z,7.18
2024-01-26T11:16:34.841Z,7.63
2024-01-26T11:19:03.079Z,7.65
2024-01-26T11:21:39.785Z,8.15
2024-01-26T11:24:19.590Z,8.10
2024-01-26T11:26:57.355Z,9.18
2024-01-26T11:29:23.971Z,9.32
2024-01-26T11:31:50.588Z,9.55
2024-01-26T11:34:17.850Z,9.13
2024-01-26T11:36:44.633Z,8.68
2024-01-26T11:39:14.680Z,9.67
2024-01-26T11:41:48.593Z,9.32
2024-01-26T11:44:19.063Z,9.63
2024-01-26T11:46:45.839Z,9.85
2024-01-26T11:49:12.509Z,8.60
2024-01-26T11:51:39.420Z,9.57
2024-01-26T11:54:06.656Z,8.77
2024-01-26T11:56:33.610Z,9.60
2024-01-26T11:59:00.596Z,9.73
2024-01-26T12:01:27.318Z,9.23
2024-01-26T12:03:53.881Z,9.38
2024-01-26T12:06:20.492Z,8.80
2024-01-26T12:08:47.820Z,8.70
2024-01-26T12:11:14.679Z,9.57
2024-01-26T12:13:42.654Z,9.55
2024-01-26T12:16:09.412Z,8.95
2024-01-26T12:18:35.971Z,9.07
2024-01-26T12:21:03.475Z,9.30
2024-01-26T12:23:29.902Z,9.75
2024-01-26T12:25:56.325Z,9.63
2024-01-26T12:28:27.912Z,10.10
2024-01-26T12:30:54.788Z,9.02
2024-01-26T12:33:23.796Z,10.48
2024-01-26T12:35:52.709Z,9.95
2024-01-26T12:38:19.482Z,11.10
2024-01-26T12:40:46.091Z,10.60
2024-01-26T12:43:15.576Z,10.30
2024-01-26T12:45:42.277Z,10.23
2024-01-26T12:48:09.605Z,9.75
2024-01-26T12:50:36.484Z,9.77
2024-01-26T12:53:02.938Z,10.52
2024-01-26T12:55:29.347Z,10.73
2024-01-26T12:57:56.684Z,10.38
2024-01-26T13:00:23.391Z,10.82
2024-01-26T13:02:50.052Z,10.35
2024-01-26T13:05:16.751Z,9.95
2024-01-26T13:07:43.241Z,10.88
2024-01-26T13:10:10.597Z,9.90
2024-01-26T13:12:37.230Z,10.68
2024-01-26T13:15:03.819Z,11.18
2024-01-26T13:17:30.448Z,10.40
2024-01-26T13:20:04.858Z,11.43
2024-01-26T13:22:35.577Z,10.60
2024-01-26T13:25:02.398Z,11.10
2024-01-26T13:27:28.896Z,10.55
2024-01-26T13:29:55.406Z,11.73
2024-01-26T13:32:21.970Z,11.32
2024-01-26T13:34:48.558Z,11.10
2024-01-26T13:37:15.308Z,11.25
2024-01-26T13:39:41.753Z,11.23
2024-01-26T13:42:08.377Z,11.63
2024-01-26T13:44:35.263Z,12.57
2024-01-26T13:47:01.830Z,12.80
2024-01-26T13:49:29.145Z,12.60
2024-01-26T13:51:55.714Z,12.55
2024-01-26T13:54:22.191Z,13.05
2024-01-26T13:56:52.971Z,12.75
2024-01-26T13:59:19.519Z,12.52
2024-01-26T14:01:45.952Z,11.93
2024-01-26T14:04:12.662Z,12.70
2024-01-26T14:06:39.227Z,12.90
2024-01-26T14:09:06.875Z,11.65
2024-01-26T14:11:37.517Z,11.80
2024-01-26T14:14:07.088Z,11.40
2024-01-26T14:16:33.764Z,11.35
2024-01-26T14:19:00.418Z,11.23
2024-01-26T14:21:27.723Z,11.77
2024-01-26T14:23:54.181Z,11.73
2024-01-26T14:26:20.656Z,10.73
2024-01-26T14:28:47.978Z,10.90
2024-01-26T14:31:14.371Z,11.23
2024-01-26T14:33:41.206Z,12.65
2024-01-26T14:36:08.999Z,12.07
2024-01-26T14:38:35.612Z,11.25
2024-01-26T14:41:02.061Z,11.60
2024-01-26T14:43:28.541Z,11.80
2024-01-26T14:45:54.974Z,12.32
2024-01-26T14:48:21.694Z,11.90
2024-01-26T14:50:48.234Z,11.60
2024-01-26T14:53:14.671Z,12.07
2024-01-26T14:55:41.038Z,11.65
2024-01-26T14:58:07.638Z,11.68
2024-01-26T15:00:36.095Z,12.80
2024-01-26T15:03:02.667Z,12.63
2024-01-26T15:05:29.145Z,11.93
2024-01-26T15:07:55.799Z,12.00
2024-01-26T15:10:22.656Z,11.90
2024-01-26T15:12:49.514Z,11.55
2024-01-26T15:15:18.128Z,12.13
2024-01-26T15:17:46.565Z,11.15
2024-01-26T15:20:13.276Z,11.50
2024-01-26T15:22:39.778Z,12.25
2024-01-26T15:25:06.471Z,11.93
2024-01-26T15:27:33.017Z,11.18
2024-01-26T15:29:59.705Z,11.68
2024-01-26T15:32:26.282Z,11.20
2024-01-26T15:34:52.803Z,12.10
2024-01-26T15:37:19.274Z,11.98
2024-01-26T15:39:45.799Z,11.15
2024-01-26T15:42:12.359Z,10.90
2024-01-26T15:44:41.714Z,10.90
2024-01-26T15:47:08.229Z,11.40
2024-01-26T15:49:35.073Z,11.27
2024-01-26T15:52:01.853Z,11.18
2024-01-26T15:54:28.487Z,10.82
2024-01-26T15:56:55.009Z,11.07
2024-01-26T15:59:21.574Z,10.77
2024-01-26T16:01:51.796Z,10.52
2024-01-26T16:04:18.544Z,10.30
2024-01-26T16:06:50.072Z,11.02
2024-01-26T16:09:17.302Z,10.90
2024-01-26T16:11:47.126Z,10.52
2024-01-26T16:14:14.694Z,11.23
2024-01-26T16:16:42.688Z,10.77
2024-01-26T16:19:09.807Z,11.43
2024-01-26T16:21:36.678Z,10.68
2024-01-26T16:24:05.788Z,11.70
2024-01-26T16:26:33.072Z,10.27
2024-01-26T16:29:00.090Z,10.18
2024-01-26T16:31:27.847Z,9.38
2024-01-26T16:33:59.283Z,9.05
2024-01-26T16:36:26.035Z,9.45
2024-01-26T16:38:55.402Z,10.02
2024-01-26T16:41:22.271Z,9.20
2024-01-26T16:43:53.736Z,8.80
2024-01-26T16:46:21.105Z,8.90
2024-01-26T16:48:47.822Z,9.27
2024-01-26T16:51:14.436Z,10.73
2024-01-26T16:53:40.999Z,10.13
2024-01-26T16:56:07.631Z,8.43
2024-01-26T16:58:34.048Z,9.38
2024-01-26T17:01:00.762Z,10.10
2024-01-26T17:03:28.228Z,9.98
2024-01-26T17:05:59.027Z,9.02
2024-01-26T17:08:29.491Z,9.50
2024-01-26T17:10:56.228Z,9.30
2024-01-26T17:13:22.699Z,10.32
2024-01-26T17:15:49.157Z,9.23
2024-01-26T17:18:15.878Z,10.20
2024-01-26T17:20:42.592Z,8.38
2024-01-26T17:23:09.261Z,8.55
2024-01-26T17:25:35.824Z,8.63
2024-01-26T17:28:02.430Z,10.38
2024-01-26T17:30:29.048Z,11.30
2024-01-26T17:32:55.531Z,10.05
2024-01-26T17:35:22.154Z,9.77
2024-01-26T17:37:48.591Z,8.27
2024-01-26T17:40:15.026Z,8.27
2024-01-26T17:42:41.551Z,7.68
2024-01-26T17:45:08.614Z,9.15
2024-01-26T17:47:35.164Z,7.15
2024-01-26T17:50:02.709Z,7.82
2024-01-26T17:52:33.560Z,8.75
2024-01-26T17:55:00.031Z,7.45
2024-01-26T17:57:26.595Z,7.65
2024-01-26T17:59:53.127Z,7.60
2024-01-26T18:02:19.591Z,8.40
2024-01-26T18:04:46.106Z,7.10
2024-01-26T18:07:12.549Z,7.93
2024-01-26T18:09:39.038Z,7.55
2024-01-26T18:12:05.699Z,6.80
2024-01-26T18:14:32.368Z,9.63
2024-01-26T18:16:58.766Z,9.57
2024-01-26T18:19:25.319Z,9.57
2024-01-26T18:21:51.896Z,8.13
2024-01-26T18:24:18.337Z,7.20
2024-01-26T18:26:45.007Z,7.82
2024-01-26T18:29:11.459Z,7.18
2024-01-26T18:31:37.893Z,7.00
2024-01-26T18:34:05.782Z,13.50
2024-01-26T18:36:33.229Z,7.97
2024-01-26T18:38:59.862Z,7.40
2024-01-26T18:41:31.514Z,6.38
2024-01-26T18:43:58.634Z,6.90
2024-01-26T18:46:26.341Z,6.57
2024-01-26T18:48:53.537Z,7.65
2024-01-26T18:51:21.117Z,8.98
2024-01-26T18:53:47.730Z,9.35
2024-01-26T18:56:14.788Z,9.43
2024-01-26T18:58:41.712Z,8.60
2024-01-26T19:01:09.254Z,8.93
2024-01-26T19:03:38.355Z,9.13
2024-01-26T19:06:05.305Z,7.70
2024-01-26T19:08:31.862Z,7.60
2024-01-26T19:10:58.354Z,6.72
2024-01-26T19:13:24.860Z,8.15
2024-01-26T19:15:51.398Z,7.63
2024-01-26T19:18:20.873Z,7.32
2024-01-26T19:20:47.709Z,6.90
2024-01-26T19:23:14.547Z,6.63
2024-01-26T19:25:41.296Z,6.88
2024-01-26T19:28:08.075Z,7.07
2024-01-26T19:30:37.195Z,7.78
2024-01-26T19:33:07.056Z,7.57
2024-01-26T19:35:33.757Z,8.05
2024-01-26T19:38:00.363Z,8.00
2024-01-26T19:40:26.838Z,11.13
2024-01-26T19:42:53.495Z,7.65
2024-01-26T19:45:23.594Z,9.50
2024-01-26T19:47:50.418Z,9.10
2024-01-26T19:50:17.926Z,11.05
2024-01-26T19:52:45.073Z,9.63
2024-01-26T19:55:12.123Z,9.75
2024-01-26T19:57:40.315Z,8.27
2024-01-26T20:00:07.373Z,12.85
2024-01-26T20:02:34.176Z,21.13
2024-01-26T20:05:00.720Z,23.17
2024-01-26T20:07:27.389Z,32.00
2024-01-26T20:09:55.239Z,23.27
2024-01-26T20:12:22.409Z,11.75
2024-01-26T20:14:49.033Z,10.60
2024-01-26T20:17:17.194Z,11.13
2024-01-26T20:19:43.733Z,10.77
2024-01-26T20:22:11.211Z,10.55
2024-01-26T20:24:37.767Z,11.00
2024-01-26T20:27:04.519Z,11.90
2024-01-26T20:29:31.361Z,10.82
2024-01-26T20:31:57.897Z,10.30
2024-01-26T20:34:25.010Z,11.02
2024-01-26T20:36:51.618Z,13.35
2024-01-26T20:39:18.157Z,11.63
2024-01-26T20:41:46.637Z,11.32
2024-01-26T20:44:14.527Z,15.43
2024-01-26T20:46:44.492Z,13.68
2024-01-26T20:49:11.428Z,12.23
2024-01-26T20:51:39.135Z,14.00
2024-01-26T20:54:06.096Z,12.13
2024-01-26T20:56:33.953Z,12.07
2024-01-26T20:59:03.488Z,10.10
2024-01-26T21:01:34.470Z,10.87
2024-01-26T21:04:01.044Z,10.57
2024-01-26T21:06:27.657Z,10.38
2024-01-26T21:08:54.183Z,9.57
2024-01-26T21:11:20.642Z,9.60
2024-01-26T21:13:47.119Z,8.80
2024-01-26T21:16:13.635Z,28.45
2024-01-26T21:18:40.669Z,22.27
2024-01-26T21:21:08.372Z,18.98
2024-01-26T21:23:34.877Z,9.60
2024-01-26T21:26:03.030Z,6.97
2024-01-26T21:28:29.542Z,6.10
2024-01-26T21:30:56.040Z,26.20
2024-01-26T21:33:22.728Z,20.02
2024-01-26T21:35:49.710Z,26.92
2024-01-26T21:38:16.529Z,12.70
2024-01-26T21:40:42.981Z,7.90
2024-01-26T21:43:09.599Z,14.13
2024-01-26T21:45:36.088Z,7.15
2024-01-26T21:48:07.420Z,7.13
2024-01-26T21:50:34.350Z,6.25
2024-01-26T21:53:00.929Z,6.72
2024-01-26T21:55:27.439Z,5.68
2024-01-26T21:57:53.943Z,8.02
2024-01-26T22:00:20.613Z,8.13
2024-01-26T22:02:48.365Z,7.57
2024-01-26T22:05:14.925Z,6.80
2024-01-26T22:07:41.580Z,5.80
2024-01-26T22:10:08.519Z,6.65
2024-01-26T22:12:35.091Z,5.47
2024-01-26T22:15:01.760Z,7.97
2024-01-26T22:17:28.302Z,6.93
2024-01-26T22:19:54.795Z,6.00
2024-01-26T22:22:21.632Z,5.03
2024-01-26T22:24:48.213Z,4.97
2024-01-26T22:27:14.805Z,3.60
2024-01-26T22:29:41.272Z,5.75
2024-01-26T22:32:08.293Z,4.13
2024-01-26T22:34:34.828Z,4.38
2024-01-26T22:37:01.643Z,5.50
2024-01-26T22:39:28.657Z,7.60
2024-01-26T22:41:55.603Z,7.88
2024-01-26T22:44:22.170Z,5.88
2024-01-26T22:46:48.596Z,3.97
2024-01-26T22:49:15.314Z,5.00
2024-01-26T22:51:41.888Z,4.87
2024-01-26T22:54:08.448Z,5.00
2024-01-26T22:56:35.022Z,4.95
2024-01-26T22:59:01.566Z,4.57
2024-01-26T23:01:28.135Z,4.40
2024-01-26T23:03:55.385Z,4.40
2024-01-26T23:06:22.352Z,5.03
2024-01-26T23:08:51.148Z,4.68
2024-01-26T23:11:20.798Z,6.32
2024-01-26T23:13:48.593Z,6.25
2024-01-26T23:16:15.052Z,7.15
2024-01-26T23:18:41.739Z,5.68
2024-01-26T23:21:08.334Z,5.80
2024-01-26T23:23:34.835Z,5.07
2024-01-26T23:26:01.383Z,4.70
2024-01-26T23:28:27.850Z,6.73
2024-01-26T23:30:54.602Z,5.13
2024-01-26T23:33:21.732Z,4.70
2024-01-26T23:35:48.647Z,5.22
2024-01-26T23:38:15.214Z,5.68
2024-01-26T23:40:41.578Z,4.93
2024-01-26T23:43:08.038Z,4.88
2024-01-26T23:45:34.607Z,4.78
2024-01-26T23:48:01.328Z,4.55
2024-01-26T23:50:27.852Z,4.85
2024-01-26T23:52:54.247Z,4.83
2024-01-26T23:55:20.680Z,6.03
2024-01-26T23:57:47.307Z,4.72
